createdAt,value
2022-08-19T00:03:12.877Z,15.13
2022-08-19T00:19:25.687Z,14.60
2022-08-19T00:22:42.277Z,15.47
2022-08-19T00:25:48.835Z,15.47
2022-08-19T00:29:26.962Z,15.47
2022-08-19T00:51:01.978Z,17.40
2022-08-19T01:03:57.768Z,17.47
2022-08-19T01:07:40.912Z,16.43
2022-08-19T01:16:17.092Z,18.20
2022-08-19T01:20:13.214Z,17.27
2022-08-19T01:23:32.505Z,18.00
2022-08-19T01:27:53.579Z,17.57
2022-08-19T01:31:35.566Z,18.00
2022-08-19T01:42:30.471Z,17.63
2022-08-19T01:51:57.659Z,17.77
2022-08-19T01:55:58.812Z,16.70
2022-08-19T02:07:47.617Z,18.70
2022-08-19T02:16:45.414Z,18.10
2022-08-19T02:29:26.823Z,17.60
2022-08-19T02:37:14.068Z,16.40
2022-08-19T02:48:14.919Z,18.67
2022-08-19T02:50:55.800Z,17.73
2022-08-19T02:53:25.520Z,18.33
2022-08-19T02:55:54.264Z,17.07
2022-08-19T02:58:25.141Z,18.20
2022-08-19T03:00:57.487Z,17.73
2022-08-19T03:03:29.243Z,17.53
2022-08-19T03:06:14.234Z,18.53
2022-08-19T03:08:43.763Z,18.10
2022-08-19T03:11:16.340Z,18.63
2022-08-19T03:13:45.171Z,19.30
2022-08-19T03:16:18.601Z,19.20
2022-08-19T03:18:47.204Z,19.23
2022-08-19T03:21:17.984Z,18.10
2022-08-19T03:23:46.367Z,17.87
2022-08-19T03:26:17.077Z,19.50
2022-08-19T03:28:51.138Z,22.30
2022-08-19T03:31:44.794Z,17.63
2022-08-19T03:34:13.606Z,19.30
2022-08-19T03:36:42.065Z,18.13
2022-08-19T03:39:11.655Z,18.50
2022-08-19T03:41:45.844Z,19.73
2022-08-19T03:44:17.854Z,19.13
2022-08-19T03:46:53.963Z,19.33
2022-08-19T03:49:27.165Z,17.87
2022-08-19T03:51:57.884Z,18.47
2022-08-19T03:54:27.104Z,18.60
2022-08-19T03:56:57.519Z,19.03
2022-08-19T03:59:28.427Z,18.47
2022-08-19T04:01:59.928Z,18.10
2022-08-19T04:04:31.878Z,18.77
2022-08-19T04:07:03.195Z,18.50
2022-08-19T04:09:31.372Z,18.70
2022-08-19T04:12:00.005Z,18.70
2022-08-19T04:14:31.071Z,18.17
2022-08-19T04:17:05.484Z,17.73
2022-08-19T04:19:38.003Z,19.13
2022-08-19T04:22:06.642Z,18.30
2022-08-19T04:24:36.158Z,18.73
2022-08-19T04:27:08.138Z,18.67
2022-08-19T04:29:37.808Z,18.00
2022-08-19T04:32:08.805Z,18.33
2022-08-19T04:35:02.128Z,17.83
2022-08-19T04:37:27.454Z,18.70
2022-08-19T04:40:17.256Z,17.17
2022-08-19T04:42:45.683Z,18.77
2022-08-19T04:45:17.561Z,17.50
2022-08-19T04:47:57.969Z,18.87
2022-08-19T04:50:27.612Z,18.00
2022-08-19T04:52:56.588Z,18.13
2022-08-19T04:55:26.419Z,18.33
2022-08-19T04:57:54.755Z,18.40
2022-08-19T05:00:23.099Z,17.57
2022-08-19T05:02:55.445Z,18.73
2022-08-19T05:05:23.750Z,17.67
2022-08-19T05:07:52.084Z,18.67
2022-08-19T05:10:21.516Z,18.73
2022-08-19T05:12:49.775Z,18.73
2022-08-19T05:15:18.194Z,18.33
2022-08-19T05:18:06.437Z,17.30
2022-08-19T05:20:53.647Z,18.60
2022-08-19T05:23:23.014Z,18.10
2022-08-19T05:25:52.607Z,18.10
2022-08-19T05:28:21.244Z,19.07
2022-08-19T05:30:51.738Z,18.93
2022-08-19T05:33:20.516Z,19.53
2022-08-19T05:35:50.447Z,19.53
2022-08-19T05:38:19.213Z,19.37
2022-08-19T05:40:49.183Z,19.73
2022-08-19T05:43:18.001Z,19.60
2022-08-19T05:45:46.363Z,19.63
2022-08-19T05:48:15.173Z,19.33
2022-08-19T05:50:45.355Z,21.97
2022-08-19T05:53:17.301Z,20.93
2022-08-19T05:55:45.476Z,19.23
2022-08-19T05:58:13.691Z,19.47
2022-08-19T06:00:42.154Z,19.13
2022-08-19T06:03:12.534Z,18.53
2022-08-19T06:05:49.564Z,19.30
2022-08-19T06:08:34.611Z,19.23
2022-08-19T06:11:22.260Z,18.17
2022-08-19T06:13:59.782Z,18.20
2022-08-19T06:16:32.633Z,18.50
2022-08-19T06:19:03.584Z,18.57
2022-08-19T06:21:32.547Z,18.43
2022-08-19T06:24:03.561Z,16.40
2022-08-19T06:26:32.014Z,18.13
2022-08-19T06:29:00.249Z,18.07
2022-08-19T06:31:30.290Z,18.97
2022-08-19T06:33:58.681Z,19.07
2022-08-19T06:36:32.455Z,18.07
2022-08-19T06:39:02.613Z,18.27
2022-08-19T06:41:31.223Z,18.23
2022-08-19T06:43:59.704Z,17.60
2022-08-19T06:46:28.759Z,16.60
2022-08-19T06:48:57.067Z,16.67
2022-08-19T06:51:25.992Z,16.27
2022-08-19T06:54:02.824Z,16.83
2022-08-19T06:56:34.728Z,16.80
2022-08-19T06:59:04.844Z,17.00
2022-08-19T07:01:38.591Z,16.30
2022-08-19T07:04:07.939Z,16.50
2022-08-19T07:06:43.892Z,17.37
2022-08-19T07:09:18.756Z,17.10
2022-08-19T07:11:48.889Z,15.70
2022-08-19T07:14:19.797Z,16.57
2022-08-19T07:16:49.958Z,15.23
2022-08-19T07:19:19.319Z,20.30
2022-08-19T07:21:48.885Z,14.70
2022-08-19T07:24:19.536Z,14.63
2022-08-19T07:26:51.972Z,15.00
2022-08-19T07:29:25.637Z,14.23
2022-08-19T07:32:00.225Z,13.70
2022-08-19T07:34:30.502Z,14.30
2022-08-19T07:36:59.375Z,17.03
2022-08-19T07:39:32.875Z,13.13
2022-08-19T07:42:04.666Z,12.17
2022-08-19T07:44:32.875Z,12.93
2022-08-19T07:47:01.193Z,11.93
2022-08-19T07:49:30.197Z,11.43
2022-08-19T07:52:02.256Z,12.40
2022-08-19T07:54:35.243Z,12.43
2022-08-19T07:57:04.217Z,11.73
2022-08-19T07:59:32.974Z,13.00
2022-08-19T08:02:01.526Z,12.23
2022-08-19T08:04:47.878Z,10.70
2022-08-19T08:07:33.695Z,10.20
2022-08-19T08:10:11.424Z,10.03
2022-08-19T08:12:58.359Z,10.43
2022-08-19T08:15:42.130Z,10.40
2022-08-19T08:18:11.096Z,10.70
2022-08-19T08:20:40.156Z,11.83
2022-08-19T08:23:27.275Z,10.47
2022-08-19T08:26:00.041Z,10.00
2022-08-19T08:28:30.743Z,10.90
2022-08-19T08:31:00.136Z,11.00
2022-08-19T08:33:34.590Z,9.80
2022-08-19T08:36:04.002Z,9.50
2022-08-19T08:38:39.119Z,9.60
2022-08-19T08:41:21.230Z,10.67
2022-08-19T08:43:53.207Z,9.40
2022-08-19T08:46:30.481Z,13.10
2022-08-19T08:49:04.787Z,8.73
2022-08-19T08:54:11.915Z,14.80
2022-08-19T08:56:43.938Z,11.23
2022-08-19T08:59:18.732Z,9.93
2022-08-19T09:01:46.957Z,8.27
2022-08-19T09:04:15.634Z,9.67
2022-08-19T09:06:52.720Z,7.73
2022-08-19T09:09:25.628Z,7.60
2022-08-19T09:12:07.184Z,9.80
2022-08-19T09:14:50.723Z,7.67
2022-08-19T09:17:20.868Z,8.57
2022-08-19T09:19:55.507Z,8.27
2022-08-19T09:22:26.092Z,8.47
2022-08-19T09:24:56.704Z,7.10
2022-08-19T09:27:42.105Z,9.03
2022-08-19T09:30:15.137Z,17.50
2022-08-19T09:32:44.915Z,8.57
2022-08-19T09:35:14.919Z,8.93
2022-08-19T09:37:43.782Z,7.50
2022-08-19T09:40:14.157Z,7.13
2022-08-19T09:42:49.966Z,10.33
2022-08-19T09:45:23.035Z,9.03
2022-08-19T09:47:54.231Z,6.07
2022-08-19T09:50:24.974Z,6.77
2022-08-19T09:52:57.356Z,8.73
2022-08-19T09:55:30.963Z,8.37
2022-08-19T09:58:01.951Z,6.23
2022-08-19T10:00:31.237Z,7.40
2022-08-19T10:02:59.421Z,7.00
2022-08-19T10:05:45.299Z,9.07
2022-08-19T10:08:18.179Z,6.33
2022-08-19T10:10:47.337Z,8.40
2022-08-19T10:13:22.883Z,6.40
2022-08-19T10:15:52.080Z,8.33
2022-08-19T10:18:22.742Z,7.30
2022-08-19T10:20:53.453Z,6.23
2022-08-19T10:23:22.495Z,7.77
2022-08-19T10:25:51.315Z,7.60
2022-08-19T10:28:20.947Z,7.33
2022-08-19T10:30:51.904Z,5.80
2022-08-19T10:33:53.189Z,9.07
2022-08-19T10:36:11.732Z,5.20
2022-08-19T10:38:40.327Z,7.33
2022-08-19T10:41:23.303Z,5.10
2022-08-19T10:43:56.211Z,5.80
2022-08-19T10:46:26.551Z,13.07
2022-08-19T10:48:55.405Z,5.60
2022-08-19T10:51:47.826Z,5.10
2022-08-19T10:54:16.959Z,6.03
2022-08-19T10:56:53.704Z,5.30
2022-08-19T10:59:31.448Z,4.77
2022-08-19T11:02:05.122Z,5.73
2022-08-19T11:04:34.393Z,6.50
2022-08-19T11:07:05.849Z,5.73
2022-08-19T11:09:42.511Z,5.57
2022-08-19T11:12:11.591Z,5.60
2022-08-19T11:14:41.276Z,6.00
2022-08-19T11:17:09.680Z,7.30
2022-08-19T11:19:37.949Z,5.17
2022-08-19T11:22:06.297Z,6.30
2022-08-19T11:24:38.189Z,5.83
2022-08-19T11:45:44.174Z,8.17
2022-08-19T11:58:18.893Z,5.00
2022-08-19T12:30:58.884Z,5.90
2022-08-19T12:34:23.256Z,10.60
2022-08-19T12:42:37.460Z,5.23
2022-08-19T12:51:31.537Z,5.47
2022-08-19T13:19:54.501Z,6.43
2022-08-19T13:23:37.620Z,5.90
2022-08-19T13:26:20.159Z,7.00
2022-08-19T14:07:44.533Z,5.93
2022-08-19T14:11:38.477Z,6.80
2022-08-19T18:49:19.159Z,5.80
2022-08-19T18:52:00.142Z,6.37
2022-08-19T18:55:02.510Z,5.53
2022-08-19T18:57:52.967Z,6.03
2022-08-19T19:00:51.379Z,7.40
2022-08-19T19:03:29.898Z,8.00
2022-08-19T19:06:11.506Z,7.23
2022-08-19T19:08:47.905Z,7.00
2022-08-19T19:11:39.473Z,7.97
2022-08-19T19:14:45.657Z,7.67
2022-08-19T19:17:45.944Z,7.27
2022-08-19T19:20:23.465Z,6.00
2022-08-19T19:23:18.204Z,4.80
2022-08-19T19:25:51.879Z,5.10
2022-08-19T19:28:30.854Z,4.43
2022-08-19T19:31:04.874Z,5.37
2022-08-19T19:33:42.724Z,4.63
2022-08-19T19:36:22.618Z,5.67
2022-08-19T19:38:56.652Z,5.03
2022-08-19T19:41:32.840Z,4.90
2022-08-19T19:47:17.693Z,4.07
2022-08-19T19:50:13.946Z,3.83
2022-08-19T19:52:47.590Z,4.13
2022-08-19T19:55:30.804Z,6.47
2022-08-19T19:58:00.016Z,4.33
2022-08-19T20:24:18.939Z,6.57
2022-08-19T20:36:30.204Z,3.40
2022-08-19T20:53:38.972Z,3.83
2022-08-19T21:11:12.433Z,3.37
2022-08-19T21:14:42.925Z,3.50
2022-08-19T22:00:37.481Z,2.47
2022-08-19T22:30:38.371Z,2.00
2022-08-19T22:33:43.365Z,3.33
2022-08-19T22:36:58.550Z,2.07
2022-08-19T22:40:42.162Z,1.97
2022-08-19T22:43:58.926Z,1.73
2022-08-19T22:51:53.320Z,1.67
2022-08-19T22:58:31.476Z,2.33
2022-08-19T23:06:01.169Z,2.87
